Time;durP1;ratioP1;P1;durP2;ratioP2;P2;SDS_P1;SDS_P2;PMS_P1;PMS_P2;Temp;Humidity;BMP_temperature;BMP_pressure;BME280_temperature;BME280_humidity;BME280_pressure;Samples;Min_cycle;Max_cycle;Signal;HPM_P1;HPM_P2
2022/06/03 00:00:20;;;;;;;12.93;5.97;;;;;;;;;;5018171;28;20157;-66
2022/06/03 00:02:58;;;;;;;8.85;5.38;;;;;;;;;;5024109;28;20156;-65
2022/06/03 00:05:43;;;;;;;10.45;6.13;;;;;;;;;;5026641;28;20113;-66
2022/06/03 00:08:18;;;;;;;12.43;7.13;;;;;;;;;;5028827;28;20108;-67
2022/06/03 00:11:03;;;;;;;10.95;5.80;;;;;;;;;;5025261;28;20076;-66
2022/06/03 00:13:58;;;;;;;11.20;5.75;;;;;;;;;;5028063;28;20048;-65
2022/06/03 00:16:57;;;;;;;10.88;5.63;;;;;;;;;;5016685;28;20037;-65
2022/06/03 00:19:41;;;;;;;9.40;5.70;;;;;;;;;;4997309;28;20038;-66
2022/06/03 00:22:13;;;;;;;7.68;5.50;;;;;;;;;;5024116;28;20066;-67
2022/06/03 00:24:39;;;;;;;8.85;5.78;;;;;;;;;;5031073;28;20029;-66
2022/06/03 00:27:08;;;;;;;7.53;5.90;;;;;;;;;;5034834;28;20093;-65
2022/06/03 00:29:34;;;;;;;11.68;5.97;;;;;;;;;;5030733;28;20060;-66
2022/06/03 00:32:03;;;;;;;8.80;5.32;;;;;;;;;;5032430;28;20538;-67
2022/06/03 00:34:32;;;;;;;9.23;5.78;;;;;;;;;;5023201;28;20029;-67
2022/06/03 00:37:10;;;;;;;9.25;5.65;;;;;;;;;;5034116;28;20040;-67
2022/06/03 00:39:55;;;;;;;9.20;5.63;;;;;;;;;;5036166;28;20116;-67
2022/06/03 00:42:21;;;;;;;11.75;6.63;;;;;;;;;;5031477;28;20498;-66
2022/06/03 00:44:57;;;;;;;10.35;5.70;;;;;;;;;;5031600;28;20065;-67
2022/06/03 00:47:32;;;;;;;11.93;6.10;;;;;;;;;;5029225;28;20055;-66
2022/06/03 00:50:07;;;;;;;10.75;6.00;;;;;;;;;;5031715;28;20032;-66
2022/06/03 00:53:06;;;;;;;7.30;5.40;;;;;;;;;;5032111;28;20041;-66
2022/06/03 00:55:41;;;;;;;7.35;5.82;;;;;;;;;;4995136;28;20048;-66
2022/06/03 00:58:10;;;;;;;13.80;5.78;;;;;;;;;;5035154;28;20025;-65
2022/06/03 01:00:41;;;;;;;8.95;5.80;;;;;;;;;;5038514;28;20025;-67
2022/06/03 01:03:07;;;;;;;;;;;;;;;;;;5027810;28;20064;-66
2022/06/03 01:05:33;;;;;;;9.70;6.07;;;;;;;;;;5032327;28;20401;-66
2022/06/03 01:08:25;;;;;;;13.50;6.43;;;;;;;;;;5031902;28;20368;-67
2022/06/03 01:11:04;;;;;;;7.63;5.28;;;;;;;;;;5035129;28;20041;-65
2022/06/03 01:13:30;;;;;;;10.45;5.93;;;;;;;;;;5028405;28;20152;-66
2022/06/03 01:16:14;;;;;;;9.02;6.00;;;;;;;;;;5037513;28;20036;-67
2022/06/03 01:18:40;;;;;;;13.15;6.93;;;;;;;;;;5025460;28;20037;-67
2022/06/03 01:21:18;;;;;;;13.82;6.30;;;;;;;;;;5032762;28;20394;-66
2022/06/03 01:23:50;;;;;;;7.97;6.10;;;;;;;;;;5023716;28;20064;-66
2022/06/03 01:26:35;;;;;;;9.43;6.10;;;;;;;;;;5033504;28;20056;-68
2022/06/03 01:29:14;;;;;;;11.35;5.78;;;;;;;;;;5035958;28;20041;-66
2022/06/03 01:31:58;;;;;;;9.55;5.90;;;;;;;;;;5033061;28;20748;-65
2022/06/03 01:34:39;;;;;;;13.32;7.10;;;;;;;;;;5034016;28;20100;-65
2022/06/03 01:37:07;;;;;;;11.53;6.27;;;;;;;;;;5030792;28;20081;-66
2022/06/03 01:39:52;;;;;;;13.80;6.25;;;;;;;;;;5029704;28;20100;-66
2022/06/03 01:42:37;;;;;;;12.25;6.55;;;;;;;;;;5036157;28;20021;-67
2022/06/03 01:45:29;;;;;;;11.40;6.10;;;;;;;;;;5030078;28;20049;-66
2022/06/03 01:47:56;;;;;;;11.35;5.75;;;;;;;;;;5022112;28;20563;-66
2022/06/03 01:50:31;;;;;;;9.75;5.88;;;;;;;;;;5027632;28;20030;-65
2022/06/03 01:53:03;;;;;;;9.02;6.13;;;;;;;;;;5034490;28;20029;-67
2022/06/03 01:55:45;;;;;;;9.30;6.18;;;;;;;;;;5033146;28;20143;-67
2022/06/03 01:58:19;;;;;;;8.10;5.60;;;;;;;;;;5029639;28;20025;-65
2022/06/03 02:00:55;;;;;;;9.93;5.63;;;;;;;;;;5033180;28;20428;-66
2022/06/03 02:03:48;;;;;;;16.98;6.07;;;;;;;;;;5030922;28;20437;-66
2022/06/03 02:06:21;;;;;;;9.68;5.65;;;;;;;;;;5032031;28;20368;-66
2022/06/03 02:09:02;;;;;;;10.25;6.10;;;;;;;;;;5026114;28;20037;-66
2022/06/03 02:11:31;;;;;;;10.65;6.20;;;;;;;;;;5036350;28;20030;-67
2022/06/03 02:14:00;;;;;;;7.82;5.45;;;;;;;;;;5022776;28;20061;-65
2022/06/03 02:16:32;;;;;;;10.88;6.03;;;;;;;;;;5040436;28;20029;-66
2022/06/03 02:19:17;;;;;;;13.52;6.63;;;;;;;;;;5029743;28;20614;-70
2022/06/03 02:22:02;;;;;;;9.35;5.70;;;;;;;;;;5043152;28;20045;-65
2022/06/03 02:24:57;;;;;;;12.27;6.22;;;;;;;;;;5046867;28;20029;-66
2022/06/03 02:27:23;;;;;;;8.02;5.70;;;;;;;;;;5014322;28;20058;-66
2022/06/03 02:32:52;;;;;;;10.05;5.45;;;;;;;;;;5031099;28;20044;-66
2022/06/03 02:35:18;;;;;;;7.40;5.60;;;;;;;;;;5037404;28;20029;-66
2022/06/03 02:38:12;;;;;;;8.82;5.53;;;;;;;;;;5030995;28;20033;-66
2022/06/03 02:40:56;;;;;;;10.95;5.55;;;;;;;;;;5034448;28;20037;-66
2022/06/03 02:43:42;;;;;;;8.95;5.47;;;;;;;;;;5027879;28;20140;-65
2022/06/03 02:46:14;;;;;;;7.70;5.38;;;;;;;;;;5038626;28;20041;-65
2022/06/03 02:49:01;;;;;;;11.93;5.60;;;;;;;;;;5029269;28;20525;-66
2022/06/03 02:51:42;;;;;;;9.48;6.07;;;;;;;;;;5039396;28;20101;-66
2022/06/03 02:54:08;;;;;;;;;;;;;;;;;;5034700;28;20033;-66
2022/06/03 02:56:49;;;;;;;9.80;6.00;;;;;;;;;;5025004;28;19917;-66
2022/06/03 02:59:15;;;;;;;;;;;;;;;;;;5030679;28;20032;-65
2022/06/03 03:01:48;;;;;;;8.98;6.07;;;;;;;;;;5038759;28;19912;-66
2022/06/03 03:04:31;;;;;;;12.20;5.50;;;;;;;;;;5034373;28;20033;-66
2022/06/03 03:07:17;;;;;;;8.52;5.75;;;;;;;;;;5035082;28;20032;-65
2022/06/03 03:09:43;;;;;;;11.75;5.97;;;;;;;;;;5017470;28;20037;-66
2022/06/03 03:12:15;;;;;;;10.20;6.53;;;;;;;;;;5031433;28;20030;-67
2022/06/03 03:14:41;;;;;;;14.85;5.97;;;;;;;;;;5030328;28;20035;-65
2022/06/03 03:17:16;;;;;;;10.10;6.00;;;;;;;;;;5036101;28;20010;-66
2022/06/03 03:19:55;;;;;;;8.43;5.95;;;;;;;;;;5030192;28;20044;-65
2022/06/03 03:22:40;;;;;;;10.85;5.95;;;;;;;;;;5029262;28;20051;-66
2022/06/03 03:25:29;;;;;;;12.02;5.82;;;;;;;;;;5034327;28;20021;-66
2022/06/03 03:27:55;;;;;;;11.50;6.45;;;;;;;;;;5026811;28;20065;-66
2022/06/03 03:30:21;;;;;;;8.63;6.85;;;;;;;;;;5029320;28;20087;-66
2022/06/03 03:32:57;;;;;;;11.07;6.18;;;;;;;;;;5032134;28;20056;-66
2022/06/03 03:35:42;;;;;;;11.82;6.50;;;;;;;;;;5027642;28;20688;-66
2022/06/03 03:38:23;;;;;;;10.23;5.75;;;;;;;;;;5029983;28;20387;-66
2022/06/03 03:40:49;;;;;;;;;;;;;;;;;;5035604;28;20026;-66
2022/06/03 03:43:34;;;;;;;13.18;6.13;;;;;;;;;;5030950;28;19913;-67
2022/06/03 03:46:20;;;;;;;13.75;6.60;;;;;;;;;;5029132;28;20029;-66
2022/06/03 03:48:46;;;;;;;10.98;6.38;;;;;;;;;;5031115;28;20090;-66
2022/06/03 03:51:30;;;;;;;9.20;6.35;;;;;;;;;;5030533;28;20032;-66
2022/06/03 03:53:56;;;;;;;10.13;6.70;;;;;;;;;;5023671;28;20033;-67
2022/06/03 03:56:41;;;;;;;9.88;6.63;;;;;;;;;;5027917;28;20083;-66
2022/06/03 03:59:07;;;;;;;9.98;7.05;;;;;;;;;;5027672;28;20203;-65
2022/06/03 04:01:38;;;;;;;9.77;6.15;;;;;;;;;;5040462;28;20098;-66
2022/06/03 04:04:37;;;;;;;10.10;6.72;;;;;;;;;;5030136;28;20033;-66
2022/06/03 04:07:22;;;;;;;12.25;7.05;;;;;;;;;;5025104;28;20055;-65
2022/06/03 04:10:08;;;;;;;12.50;6.75;;;;;;;;;;5035057;28;20516;-66
2022/06/03 04:12:41;;;;;;;11.60;7.50;;;;;;;;;;5041188;28;20029;-66
2022/06/03 04:15:07;;;;;;;11.82;7.13;;;;;;;;;;5033846;28;20033;-66
2022/06/03 04:17:49;;;;;;;13.48;7.40;;;;;;;;;;5027910;28;20028;-66
2022/06/03 04:20:20;;;;;;;14.07;7.88;;;;;;;;;;5030164;28;20025;-65
2022/06/03 04:22:59;;;;;;;13.07;8.35;;;;;;;;;;5042240;28;20029;-65
2022/06/03 04:25:29;;;;;;;14.20;7.47;;;;;;;;;;5028076;28;20317;-65
2022/06/03 04:28:06;;;;;;;9.98;7.43;;;;;;;;;;5033123;28;20040;-64
2022/06/03 04:30:44;;;;;;;9.90;7.55;;;;;;;;;;5034855;28;20043;-66
2022/06/03 04:33:29;;;;;;;10.80;7.63;;;;;;;;;;5033062;28;20049;-65
2022/06/03 04:36:13;;;;;;;17.38;8.48;;;;;;;;;;5038620;28;20108;-66
2022/06/03 04:38:48;;;;;;;16.05;8.25;;;;;;;;;;5032144;28;20025;-65
2022/06/03 04:41:33;;;;;;;12.35;8.02;;;;;;;;;;5020660;28;20017;-67
2022/06/03 04:44:05;;;;;;;26.23;7.95;;;;;;;;;;5024919;28;20045;-65
2022/06/03 04:46:31;;;;;;;11.80;7.45;;;;;;;;;;5027729;28;20534;-65
2022/06/03 04:49:16;;;;;;;12.32;8.80;;;;;;;;;;5029913;28;20033;-66
2022/06/03 04:52:00;;;;;;;14.85;7.70;;;;;;;;;;5035908;28;20108;-66
2022/06/03 04:54:26;;;;;;;13.02;7.82;;;;;;;;;;5023855;28;20069;-65
2022/06/03 04:57:19;;;;;;;13.38;7.85;;;;;;;;;;5020946;28;20156;-67
2022/06/03 05:00:04;;;;;;;10.95;7.15;;;;;;;;;;5000677;28;20070;-66
2022/06/03 05:02:49;;;;;;;11.35;7.60;;;;;;;;;;5022789;28;20025;-66
2022/06/03 05:05:18;;;;;;;10.35;7.03;;;;;;;;;;5032154;28;20029;-66
2022/06/03 05:07:44;;;;;;;12.00;5.90;;;;;;;;;;5024624;28;20028;-65
2022/06/03 05:10:22;;;;;;;12.80;5.75;;;;;;;;;;5034714;28;20029;-66
2022/06/03 05:13:07;;;;;;;10.50;5.53;;;;;;;;;;5029749;28;20032;-65
2022/06/03 05:15:51;;;;;;;8.23;5.57;;;;;;;;;;5031024;28;20399;-65
2022/06/03 05:18:26;;;;;;;10.98;5.70;;;;;;;;;;5034064;28;20025;-66
2022/06/03 05:21:05;;;;;;;7.18;5.20;;;;;;;;;;5032827;28;20029;-67
2022/06/03 05:23:33;;;;;;;9.68;5.30;;;;;;;;;;5030966;28;20529;-66
2022/06/03 05:25:59;;;;;;;14.77;5.93;;;;;;;;;;5031328;28;20113;-67
2022/06/03 05:28:32;;;;;;;6.47;5.30;;;;;;;;;;5036127;28;20029;-65
2022/06/03 05:30:58;;;;;;;11.43;5.90;;;;;;;;;;5035281;28;20482;-65
2022/06/03 05:33:42;;;;;;;12.35;5.65;;;;;;;;;;5032032;28;20021;-66
2022/06/03 05:36:25;;;;;;;7.30;5.10;;;;;;;;;;5033519;28;20030;-64
2022/06/03 05:39:06;;;;;;;11.95;5.60;;;;;;;;;;5037287;28;20025;-66
2022/06/03 05:44:42;;;;;;;9.10;5.35;;;;;;;;;;5040823;28;20246;-66
2022/06/03 05:47:16;;;;;;;12.10;5.95;;;;;;;;;;5027814;28;20106;-66
2022/06/03 05:49:48;;;;;;;7.25;4.68;;;;;;;;;;5034402;28;20650;-66
2022/06/03 05:52:14;;;;;;;7.70;4.80;;;;;;;;;;5024756;28;20104;-68
2022/06/03 05:54:48;;;;;;;7.03;4.85;;;;;;;;;;5029780;28;20171;-65
2022/06/03 05:57:21;;;;;;;8.65;4.40;;;;;;;;;;5029361;28;20153;-67
2022/06/03 05:59:53;;;;;;;10.02;5.18;;;;;;;;;;5031596;28;20064;-66
2022/06/03 06:02:28;;;;;;;7.00;4.65;;;;;;;;;;5037491;28;20044;-66
2022/06/03 06:05:12;;;;;;;7.82;4.82;;;;;;;;;;5027971;28;20090;-67
2022/06/03 06:07:48;;;;;;;9.88;5.35;;;;;;;;;;5032622;28;20120;-66
2022/06/03 06:10:17;;;;;;;7.97;4.90;;;;;;;;;;5030582;28;20032;-69
2022/06/03 06:13:02;;;;;;;5.88;4.57;;;;;;;;;;5026982;28;20033;-65
2022/06/03 06:15:31;;;;;;;8.82;4.82;;;;;;;;;;5029877;28;20036;-66
2022/06/03 06:18:00;;;;;;;11.63;5.35;;;;;;;;;;5030469;28;20252;-66
2022/06/03 06:20:26;;;;;;;8.07;5.07;;;;;;;;;;5026279;28;20033;-65
2022/06/03 06:22:57;;;;;;;8.35;5.18;;;;;;;;;;5030919;28;20052;-66
2022/06/03 06:25:38;;;;;;;10.10;4.97;;;;;;;;;;5029445;28;20032;-65
2022/06/03 06:28:05;;;;;;;8.48;4.93;;;;;;;;;;5027706;28;20030;-67
2022/06/03 06:30:34;;;;;;;9.40;5.05;;;;;;;;;;5029070;28;20423;-67
2022/06/03 06:33:12;;;;;;;10.60;4.72;;;;;;;;;;5041355;28;20033;-64
2022/06/03 06:35:50;;;;;;;8.15;5.15;;;;;;;;;;5028331;28;20034;-67
2022/06/03 06:38:16;;;;;;;6.82;4.80;;;;;;;;;;5028719;28;20052;-67
2022/06/03 06:40:46;;;;;;;7.65;4.95;;;;;;;;;;5020450;28;20479;-65
2022/06/03 06:43:30;;;;;;;8.30;5.15;;;;;;;;;;5027527;28;20025;-67
2022/06/03 06:46:05;;;;;;;8.15;5.05;;;;;;;;;;5024611;28;20044;-66
2022/06/03 06:48:37;;;;;;;9.52;4.65;;;;;;;;;;5028322;28;20022;-66
2022/06/03 06:51:12;;;;;;;11.95;4.68;;;;;;;;;;5025431;28;20026;-67
2022/06/03 06:53:38;;;;;;;10.27;5.85;;;;;;;;;;5027274;28;20083;-66
2022/06/03 06:56:12;;;;;;;9.00;4.88;;;;;;;;;;5028765;28;20112;-68
2022/06/03 06:58:42;;;;;;;6.70;4.78;;;;;;;;;;5025299;28;20083;-71
2022/06/03 07:01:09;;;;;;;8.45;4.70;;;;;;;;;;5025661;28;20024;-71
2022/06/03 07:03:50;;;;;;;7.53;4.88;;;;;;;;;;5024932;28;20033;-71
2022/06/03 07:06:21;;;;;;;7.07;4.95;;;;;;;;;;5025522;28;20041;-70
2022/06/03 07:08:59;;;;;;;7.65;4.88;;;;;;;;;;5024597;28;20292;-71
2022/06/03 07:11:30;;;;;;;15.13;6.35;;;;;;;;;;5027702;28;20098;-69
2022/06/03 07:13:59;;;;;;;6.95;5.00;;;;;;;;;;5026533;28;20477;-69
2022/06/03 07:19:50;;;;;;;14.70;4.72;;;;;;;;;;5019443;28;20052;-71
2022/06/03 07:22:22;;;;;;;9.13;4.85;;;;;;;;;;5027943;28;20028;-69
2022/06/03 07:24:48;;;;;;;8.52;5.10;;;;;;;;;;5026705;28;20479;-70
2022/06/03 07:27:27;;;;;;;8.40;4.72;;;;;;;;;;5026024;28;20083;-69
2022/06/03 07:30:02;;;;;;;11.95;4.70;;;;;;;;;;5028689;28;20498;-70
2022/06/03 07:32:32;;;;;;;9.90;4.97;;;;;;;;;;5026497;28;20299;-67
2022/06/03 07:35:01;;;;;;;7.47;4.68;;;;;;;;;;5026489;28;20024;-69
2022/06/03 07:37:27;;;;;;;6.97;4.55;;;;;;;;;;5026238;28;20104;-69
2022/06/03 07:39:56;;;;;;;8.07;4.38;;;;;;;;;;5025233;28;20509;-70
2022/06/03 07:42:22;;;;;;;9.00;4.40;;;;;;;;;;5031584;28;20021;-68
2022/06/03 07:45:05;;;;;;;8.68;4.75;;;;;;;;;;5034023;28;20041;-69
2022/06/03 07:47:32;;;;;;;7.00;4.63;;;;;;;;;;5032241;28;20061;-69
2022/06/03 07:49:59;;;;;;;12.10;4.60;;;;;;;;;;5033389;28;20033;-70
2022/06/03 07:52:25;;;;;;;11.55;4.30;;;;;;;;;;5035909;28;20467;-69
2022/06/03 07:54:55;;;;;;;16.02;4.85;;;;;;;;;;5022960;28;20126;-68
2022/06/03 07:57:22;;;;;;;;;;;;;;;;;;5038878;28;20013;-69
2022/06/03 07:59:48;;;;;;;13.95;4.57;;;;;;;;;;5026559;28;19927;-73
2022/06/03 08:02:17;;;;;;;8.13;4.00;;;;;;;;;;5034846;28;20124;-70
2022/06/03 08:04:43;;;;;;;6.80;4.40;;;;;;;;;;5028758;28;20083;-70
2022/06/03 08:12:57;;;;;;;6.10;4.10;;;;;;;;;;5036025;28;20102;-70
2022/06/03 08:15:28;;;;;;;7.72;4.28;;;;;;;;;;5021726;28;20061;-69
2022/06/03 08:17:54;;;;;;;8.70;4.32;;;;;;;;;;5028340;28;20025;-70
2022/06/03 08:20:22;;;;;;;5.50;4.10;;;;;;;;;;5035171;28;20037;-71
2022/06/03 08:22:48;;;;;;;14.02;5.90;;;;;;;;;;5032699;28;20079;-69
2022/06/03 08:25:17;;;;;;;8.05;4.50;;;;;;;;;;5030230;28;20040;-70
2022/06/03 08:27:44;;;;;;;17.27;5.88;;;;;;;;;;5041618;28;20448;-70
2022/06/03 08:30:17;;;;;;;7.38;4.22;;;;;;;;;;5029674;28;22008;-69
2022/06/03 08:32:49;;;;;;;7.90;4.53;;;;;;;;;;5015268;28;20057;-69
2022/06/03 08:35:20;;;;;;;8.63;3.90;;;;;;;;;;5022250;28;20122;-68
2022/06/03 08:37:46;;;;;;;7.47;4.10;;;;;;;;;;5033037;28;20021;-69
2022/06/03 08:40:35;;;;;;;6.80;4.55;;;;;;;;;;5026252;28;20513;-70
2022/06/03 08:43:04;;;;;;;8.50;4.10;;;;;;;;;;5027896;28;20082;-69
2022/06/03 08:45:30;;;;;;;9.65;3.95;;;;;;;;;;5029422;28;20491;-68
2022/06/03 08:47:58;;;;;;;8.60;3.65;;;;;;;;;;5032870;28;20556;-68
2022/06/03 08:50:43;;;;;;;20.25;5.00;;;;;;;;;;5033461;28;20478;-67
2022/06/03 08:53:15;;;;;;;12.15;3.88;;;;;;;;;;5026038;28;20029;-69
2022/06/03 08:55:51;;;;;;;7.30;3.63;;;;;;;;;;5034892;28;20494;-69
2022/06/03 08:58:24;;;;;;;5.78;3.35;;;;;;;;;;5038812;28;20055;-68
2022/06/03 09:01:08;;;;;;;7.55;3.20;;;;;;;;;;5032342;28;20108;-68
2022/06/03 09:03:49;;;;;;;5.32;3.67;;;;;;;;;;5025362;28;20064;-73
2022/06/03 09:06:31;;;;;;;12.18;3.70;;;;;;;;;;5023082;28;20078;-71
2022/06/03 09:09:03;;;;;;;10.13;3.58;;;;;;;;;;5026995;28;20032;-69
2022/06/03 09:11:49;;;;;;;7.75;3.88;;;;;;;;;;5025244;28;20034;-71
2022/06/03 09:14:21;;;;;;;11.55;3.40;;;;;;;;;;5032878;28;20033;-70
2022/06/03 09:16:48;;;;;;;7.78;3.10;;;;;;;;;;5026169;28;20505;-69
2022/06/03 09:19:43;;;;;;;5.57;2.95;;;;;;;;;;5033076;28;20029;-68
2022/06/03 09:22:12;;;;;;;6.93;3.33;;;;;;;;;;5021315;28;20029;-68
2022/06/03 09:24:40;;;;;;;7.93;2.70;;;;;;;;;;5041624;28;20140;-70
2022/06/03 09:27:08;;;;;;;5.20;2.92;;;;;;;;;;5027595;28;20070;-70
2022/06/03 09:29:34;;;;;;;13.15;2.78;;;;;;;;;;5035570;28;20041;-70
2022/06/03 09:32:02;;;;;;;7.75;2.55;;;;;;;;;;5029994;28;20056;-69
2022/06/03 09:34:51;;;;;;;7.00;2.78;;;;;;;;;;5028124;28;20035;-70
2022/06/03 09:37:32;;;;;;;7.03;2.50;;;;;;;;;;5023276;28;20092;-68
2022/06/03 09:39:59;;;;;;;6.63;2.83;;;;;;;;;;5051922;28;20021;-68
2022/06/03 09:42:26;;;;;;;4.13;2.53;;;;;;;;;;5035333;28;20508;-69
2022/06/03 09:44:53;;;;;;;4.93;2.20;;;;;;;;;;5026150;28;20049;-71
2022/06/03 09:47:21;;;;;;;14.93;2.78;;;;;;;;;;5026310;28;20040;-69
2022/06/03 09:49:49;;;;;;;5.82;2.50;;;;;;;;;;5043770;28;20112;-71
2022/06/03 09:52:17;;;;;;;6.80;2.95;;;;;;;;;;5028790;28;20065;-73
2022/06/03 09:54:44;;;;;;;6.57;2.45;;;;;;;;;;5023611;28;20315;-69
2022/06/03 09:57:22;;;;;;;5.68;2.70;;;;;;;;;;5022685;28;20032;-70
2022/06/03 10:00:08;;;;;;;10.52;2.75;;;;;;;;;;5021521;28;20483;-70
2022/06/03 10:02:34;;;;;;;6.57;2.72;;;;;;;;;;5030081;28;20095;-71
2022/06/03 10:05:01;;;;;;;5.07;2.28;;;;;;;;;;5031454;28;20069;-69
2022/06/03 10:07:27;;;;;;;7.18;2.70;;;;;;;;;;5023824;28;20033;-70
2022/06/03 10:12:49;;;;;;;2.88;2.10;;;;;;;;;;5030556;28;20176;-71
2022/06/03 10:18:05;;;;;;;4.10;2.17;;;;;;;;;;5034341;28;20595;-72
2022/06/03 10:20:34;;;;;;;4.90;2.80;;;;;;;;;;5030708;28;20033;-69
2022/06/03 10:23:02;;;;;;;5.18;3.25;;;;;;;;;;5026310;28;20029;-70
2022/06/03 10:25:28;;;;;;;4.40;2.75;;;;;;;;;;5025847;28;20025;-70
2022/06/03 10:27:54;;;;;;;6.30;2.60;;;;;;;;;;5036375;28;20033;-69
2022/06/03 10:30:28;;;;;;;4.22;3.00;;;;;;;;;;5027883;28;20094;-70
2022/06/03 10:32:54;;;;;;;5.97;3.30;;;;;;;;;;5032712;28;20052;-71
2022/06/03 10:35:26;;;;;;;4.07;3.10;;;;;;;;;;5028236;28;20108;-69
2022/06/03 10:38:00;;;;;;;5.57;2.90;;;;;;;;;;5029958;28;20368;-70
2022/06/03 10:40:27;;;;;;;6.50;2.90;;;;;;;;;;5033112;28;20083;-70
2022/06/03 10:42:55;;;;;;;5.65;3.50;;;;;;;;;;5026525;28;20684;-66
2022/06/03 10:45:31;;;;;;;6.80;3.53;;;;;;;;;;5032971;28;20052;-65
2022/06/03 10:47:58;;;;;;;7.13;2.97;;;;;;;;;;5037400;28;20025;-66
2022/06/03 10:50:25;;;;;;;5.53;2.70;;;;;;;;;;5026667;28;20032;-65
2022/06/03 11:01:26;;;;;;;4.68;2.30;;;;;;;;;;5024932;28;20037;-66
2022/06/03 11:03:53;;;;;;;6.20;2.33;;;;;;;;;;5029728;28;20057;-64
2022/06/03 11:06:22;;;;;;;5.25;2.10;;;;;;;;;;5035251;28;20025;-67
2022/06/03 11:08:58;;;;;;;6.00;1.90;;;;;;;;;;5026815;28;20150;-66
2022/06/03 11:11:44;;;;;;;4.53;1.80;;;;;;;;;;5024289;28;20025;-65
2022/06/03 11:14:25;;;;;;;4.15;2.15;;;;;;;;;;5029715;28;20037;-66
2022/06/03 11:16:54;;;;;;;4.32;2.38;;;;;;;;;;5026489;28;20057;-68
2022/06/03 11:19:21;;;;;;;5.43;2.20;;;;;;;;;;5029900;28;20037;-66
2022/06/03 11:21:47;;;;;;;5.60;1.98;;;;;;;;;;5029296;28;20029;-65
2022/06/03 11:24:13;;;;;;;6.88;2.13;;;;;;;;;;5031004;28;20029;-66
2022/06/03 11:26:41;;;;;;;3.58;1.95;;;;;;;;;;5030813;28;20060;-66
2022/06/03 11:29:10;;;;;;;8.18;2.33;;;;;;;;;;5029839;28;20029;-66
2022/06/03 11:31:38;;;;;;;6.93;2.10;;;;;;;;;;5050377;28;20032;-66
2022/06/03 11:34:14;;;;;;;7.70;2.70;;;;;;;;;;5051514;28;20052;-65
2022/06/03 11:36:46;;;;;;;5.55;2.50;;;;;;;;;;5050832;28;20479;-65
2022/06/03 11:39:15;;;;;;;3.88;2.00;;;;;;;;;;5050782;28;20025;-65
2022/06/03 11:41:44;;;;;;;10.27;2.17;;;;;;;;;;5051142;28;20021;-66
2022/06/03 11:44:16;;;;;;;5.17;1.60;;;;;;;;;;5050994;28;20068;-65
2022/06/03 11:46:46;;;;;;;3.35;1.40;;;;;;;;;;5050840;28;20029;-66
2022/06/03 11:49:18;;;;;;;2.53;1.53;;;;;;;;;;5051137;28;20124;-65
2022/06/03 11:51:46;;;;;;;3.58;1.52;;;;;;;;;;5050666;28;20029;-65
2022/06/03 11:54:13;;;;;;;3.53;1.60;;;;;;;;;;5050304;28;20106;-65
2022/06/03 11:56:41;;;;;;;9.55;1.95;;;;;;;;;;5048861;28;20115;-64
2022/06/03 11:59:07;;;;;;;7.47;1.83;;;;;;;;;;5045306;28;20048;-66
2022/06/03 12:01:33;;;;;;;4.40;1.45;;;;;;;;;;5029818;28;20040;-65
2022/06/03 12:04:02;;;;;;;2.17;1.30;;;;;;;;;;5030023;28;20032;-65
2022/06/03 12:06:52;;;;;;;3.00;1.97;;;;;;;;;;5029782;28;20088;-64
2022/06/03 12:09:37;;;;;;;5.22;1.52;;;;;;;;;;5030097;28;20108;-65
2022/06/03 12:15:18;;;;;;;3.50;1.48;;;;;;;;;;5029722;28;20179;-67
2022/06/03 12:17:44;;;;;;;5.45;1.65;;;;;;;;;;5030051;28;20021;-65
2022/06/03 12:20:18;;;;;;;4.65;1.48;;;;;;;;;;5049639;28;20033;-65
2022/06/03 12:22:44;;;;;;;6.45;1.88;;;;;;;;;;5049857;28;20040;-66
2022/06/03 12:25:37;;;;;;;3.13;1.30;;;;;;;;;;5049803;28;20025;-66
2022/06/03 12:28:04;;;;;;;4.32;1.70;;;;;;;;;;5049623;28;20021;-65
2022/06/03 12:30:39;;;;;;;2.70;1.38;;;;;;;;;;5049838;28;20017;-65
2022/06/03 12:33:09;;;;;;;4.07;1.90;;;;;;;;;;5049792;28;20029;-65
2022/06/03 12:35:50;;;;;;;5.00;1.77;;;;;;;;;;5049328;28;20040;-66
2022/06/03 12:38:23;;;;;;;4.15;1.58;;;;;;;;;;5049338;28;20547;-67
2022/06/03 12:40:50;;;;;;;4.07;1.60;;;;;;;;;;5050067;28;20029;-66
2022/06/03 12:43:28;;;;;;;9.07;1.92;;;;;;;;;;5036555;28;20109;-66
2022/06/03 12:46:03;;;;;;;5.90;2.08;;;;;;;;;;5029557;28;20098;-65
2022/06/03 12:48:45;;;;;;;7.00;2.10;;;;;;;;;;5029861;28;20030;-66
2022/06/03 12:51:31;;;;;;;7.13;1.70;;;;;;;;;;5030034;28;20033;-66
2022/06/03 12:54:08;;;;;;;6.15;2.10;;;;;;;;;;5030307;28;20044;-65
2022/06/03 12:56:38;;;;;;;3.17;2.10;;;;;;;;;;5029811;28;20057;-67
2022/06/03 12:59:11;;;;;;;3.22;1.60;;;;;;;;;;5030114;28;20029;-68
2022/06/03 13:01:46;;;;;;;4.53;2.35;;;;;;;;;;5029861;28;20037;-66
2022/06/03 13:04:44;;;;;;;5.38;2.70;;;;;;;;;;5029023;28;20105;-68
2022/06/03 13:07:11;;;;;;;5.50;2.25;;;;;;;;;;4996273;28;20038;-66
2022/06/03 13:09:58;;;;;;;4.82;2.00;;;;;;;;;;5029917;28;20096;-64
2022/06/03 13:12:29;;;;;;;5.60;2.00;;;;;;;;;;5029839;28;20048;-66
2022/06/03 13:14:55;;;;;;;4.03;2.00;;;;;;;;;;5029307;28;20033;-66
2022/06/03 13:17:40;;;;;;;5.00;2.00;;;;;;;;;;5041042;28;20123;-66
2022/06/03 13:20:06;;;;;;;23.83;2.85;;;;;;;;;;5049464;28;20029;-65
2022/06/03 13:22:46;;;;;;;8.30;1.90;;;;;;;;;;5049225;28;20040;-66
2022/06/03 13:25:15;;;;;;;9.52;2.25;;;;;;;;;;5048474;28;20021;-66
2022/06/03 13:28:01;;;;;;;7.93;1.90;;;;;;;;;;5048589;28;20174;-66
2022/06/03 13:30:34;;;;;;;6.38;1.85;;;;;;;;;;5047385;28;20048;-66
2022/06/03 13:33:02;;;;;;;12.85;1.73;;;;;;;;;;5049606;28;20267;-66
2022/06/03 13:35:32;;;;;;;10.68;2.78;;;;;;;;;;5048448;28;20030;-65
2022/06/03 13:38:22;;;;;;;4.22;1.83;;;;;;;;;;5025436;28;20022;-66
2022/06/03 13:43:33;;;;;;;4.45;1.83;;;;;;;;;;5009302;28;20504;-66
2022/06/03 13:46:01;;;;;;;7.68;2.10;;;;;;;;;;5009004;28;20081;-65
2022/06/03 13:48:33;;;;;;;12.88;2.30;;;;;;;;;;5007446;28;20049;-65
2022/06/03 13:51:18;;;;;;;6.65;2.05;;;;;;;;;;5009210;28;20018;-66
2022/06/03 13:53:49;;;;;;;13.18;2.30;;;;;;;;;;5008908;28;20029;-65
2022/06/03 13:56:19;;;;;;;5.55;1.70;;;;;;;;;;5009369;28;20026;-66
2022/06/03 13:58:45;;;;;;;10.18;2.00;;;;;;;;;;5009084;28;20180;-66
2022/06/03 14:01:31;;;;;;;8.60;2.00;;;;;;;;;;5009061;28;20038;-65
2022/06/03 14:04:27;;;;;;;3.00;1.70;;;;;;;;;;5009051;28;20029;-66
2022/06/03 14:06:58;;;;;;;10.48;2.25;;;;;;;;;;5003930;28;20084;-66
2022/06/03 14:09:48;;;;;;;4.15;1.90;;;;;;;;;;5008994;28;20034;-66
2022/06/03 14:12:22;;;;;;;4.05;1.77;;;;;;;;;;5041062;28;20072;-67
2022/06/03 14:15:14;;;;;;;8.25;1.92;;;;;;;;;;5051195;28;20051;-66
2022/06/03 14:17:46;;;;;;;10.77;1.90;;;;;;;;;;5048365;28;20033;-71
2022/06/03 14:20:14;;;;;;;5.63;1.70;;;;;;;;;;5050791;28;20056;-66
2022/06/03 14:22:40;;;;;;;7.18;2.35;;;;;;;;;;5052498;28;20714;-67
2022/06/03 14:25:16;;;;;;;12.43;2.08;;;;;;;;;;5052565;28;20055;-66
2022/06/03 14:27:48;;;;;;;10.00;1.70;;;;;;;;;;5052614;28;20037;-65
2022/06/03 14:30:25;;;;;;;16.08;2.63;;;;;;;;;;5051135;28;20031;-64
2022/06/03 14:32:53;;;;;;;10.38;1.70;;;;;;;;;;5052431;28;20048;-67
2022/06/03 14:35:22;;;;;;;10.73;4.07;;;;;;;;;;5052126;28;20189;-66
2022/06/03 14:38:08;;;;;;;13.65;2.00;;;;;;;;;;5041444;28;20026;-67
2022/06/03 14:40:36;;;;;;;5.05;1.70;;;;;;;;;;5001264;28;20121;-65
2022/06/03 14:43:03;;;;;;;5.22;1.70;;;;;;;;;;5031628;28;20087;-65
2022/06/03 14:45:31;;;;;;;5.25;1.70;;;;;;;;;;5031599;28;20057;-65
2022/06/03 14:47:58;;;;;;;10.07;2.13;;;;;;;;;;5031920;28;20086;-66
2022/06/03 14:50:27;;;;;;;6.20;1.55;;;;;;;;;;5031681;28;20506;-65
2022/06/03 14:53:03;;;;;;;4.72;1.73;;;;;;;;;;5031314;28;20041;-66
2022/06/03 14:55:32;;;;;;;5.70;2.30;;;;;;;;;;5031479;28;20033;-66
2022/06/03 14:58:01;;;;;;;8.90;1.90;;;;;;;;;;5031671;28;20053;-66
2022/06/03 15:00:36;;;;;;;6.65;1.70;;;;;;;;;;5031567;28;20167;-65
2022/06/03 15:03:22;;;;;;;6.25;2.20;;;;;;;;;;5031392;28;20044;-68
2022/06/03 15:05:56;;;;;;;10.27;2.80;;;;;;;;;;5020673;28;20068;-66
2022/06/03 15:08:22;;;;;;;3.80;2.10;;;;;;;;;;5031112;28;20064;-67
2022/06/03 15:10:54;;;;;;;4.47;1.83;;;;;;;;;;5043387;28;20129;-66
2022/06/03 15:13:24;;;;;;;6.28;2.08;;;;;;;;;;5049368;28;20053;-67
2022/06/03 15:15:50;;;;;;;;;;;;;;;;;;5050645;28;20104;-66
2022/06/03 15:18:18;;;;;;;5.78;1.83;;;;;;;;;;5050516;28;20484;-65
2022/06/03 15:20:56;;;;;;;3.60;1.80;;;;;;;;;;5051199;28;20028;-65
2022/06/03 15:23:24;;;;;;;3.83;1.88;;;;;;;;;;5050386;28;20021;-66
2022/06/03 15:25:54;;;;;;;5.60;2.00;;;;;;;;;;5050496;28;20079;-66
2022/06/03 15:28:21;;;;;;;12.35;2.17;;;;;;;;;;5051429;28;20029;-64
2022/06/03 15:30:54;;;;;;;2.90;1.75;;;;;;;;;;5051375;28;20029;-66
2022/06/03 15:33:21;;;;;;;11.95;2.78;;;;;;;;;;5050671;28;20558;-66
2022/06/03 15:35:47;;;;;;;8.93;2.20;;;;;;;;;;5051227;28;20025;-66
2022/06/03 15:38:15;;;;;;;2.95;1.60;;;;;;;;;;5023562;28;20030;-66
2022/06/03 15:40:42;;;;;;;4.80;2.00;;;;;;;;;;5012249;28;20048;-67
2022/06/03 15:43:13;;;;;;;3.28;1.80;;;;;;;;;;5011248;28;20022;-65
2022/06/03 15:45:51;;;;;;;2.83;1.73;;;;;;;;;;5011418;28;20499;-65
2022/06/03 15:48:18;;;;;;;4.68;2.00;;;;;;;;;;5010843;28;20037;-65
2022/06/03 15:51:01;;;;;;;5.55;2.20;;;;;;;;;;5011306;28;20092;-66
2022/06/03 15:53:30;;;;;;;6.30;2.40;;;;;;;;;;5010958;28;20038;-66
2022/06/03 15:56:15;;;;;;;6.20;2.00;;;;;;;;;;5010512;28;20056;-66